Time;durP1;ratioP1;P1;durP2;ratioP2;P2;SDS_P1;SDS_P2;PMS_P1;PMS_P2;Temp;Humidity;BMP_temperature;BMP_pressure;BME280_temperature;BME280_humidity;BME280_pressure;Samples;Min_cycle;Max_cycle;Signal;HPM_P1;HPM_P2
2021/12/31 00:01:53;;;;;;;39.42;20.58;;;;;;;4.59;100.00;100952.03;5588975;31;34578;-72
2021/12/31 00:04:56;;;;;;;39.83;20.10;;;;;;;4.58;100.00;100952.97;5588916;31;34580;-72
2021/12/31 00:07:58;;;;;;;39.08;20.37;;;;;;;4.56;100.00;100951.41;5589282;31;34377;-72
2021/12/31 00:11:01;;;;;;;41.28;20.85;;;;;;;4.59;100.00;100957.28;5588846;31;34019;-73
2021/12/31 00:14:04;;;;;;;35.30;19.30;;;;;;;4.60;100.00;100968.63;5588819;31;33886;-72
2021/12/31 00:17:07;;;;;;;36.10;20.23;;;;;;;4.64;100.00;100964.81;5588609;31;34202;-73
2021/12/31 00:20:17;;;;;;;36.30;19.98;;;;;;;4.65;100.00;100964.69;5588865;31;33972;-72
2021/12/31 00:23:24;;;;;;;32.90;19.98;;;;;;;4.76;100.00;100963.88;5588721;31;33849;-72
2021/12/31 00:26:26;;;;;;;36.67;19.00;;;;;;;4.74;100.00;100971.06;5588566;31;34667;-72
2021/12/31 00:29:29;;;;;;;34.83;18.30;;;;;;;4.77;100.00;100962.94;5587797;31;34358;-72
2021/12/31 00:32:32;;;;;;;35.83;20.27;;;;;;;4.84;100.00;100958.91;5588457;31;34656;-72
2021/12/31 00:35:37;;;;;;;36.13;19.55;;;;;;;4.76;100.00;100958.63;5587520;31;34065;-72
2021/12/31 00:38:40;;;;;;;37.13;20.20;;;;;;;4.73;100.00;100959.69;5588701;31;33932;-72
2021/12/31 00:41:43;;;;;;;33.42;20.60;;;;;;;4.74;100.00;100965.81;5588126;31;33900;-72
2021/12/31 00:44:45;;;;;;;37.08;19.58;;;;;;;4.74;100.00;100969.25;5590702;31;34649;-72
2021/12/31 00:47:48;;;;;;;36.97;19.67;;;;;;;4.77;100.00;100960.31;5590956;31;34237;-72
2021/12/31 00:50:51;;;;;;;34.00;19.30;;;;;;;4.74;100.00;100963.16;5590724;31;33952;-72
2021/12/31 00:53:54;;;;;;;34.40;19.87;;;;;;;4.74;100.00;100963.16;5590930;31;34359;-72
2021/12/31 00:57:02;;;;;;;35.47;20.67;;;;;;;4.80;100.00;100965.31;5590742;31;33997;-72
2021/12/31 01:00:08;;;;;;;35.83;20.12;;;;;;;4.73;100.00;100967.59;5590780;31;34588;-72
2021/12/31 01:03:11;;;;;;;34.42;19.30;;;;;;;4.71;100.00;100968.63;5591074;31;34793;-72
2021/12/31 01:06:15;;;;;;;38.45;21.42;;;;;;;4.73;100.00;100975.47;5591023;31;33948;-72
2021/12/31 01:09:19;;;;;;;37.38;20.10;;;;;;;4.71;100.00;100976.53;5590706;31;33915;-72
2021/12/31 01:12:24;;;;;;;38.55;21.52;;;;;;;4.73;100.00;100974.62;5590600;31;33970;-72
2021/12/31 01:15:37;;;;;;;40.72;22.70;;;;;;;4.75;100.00;100976.19;5590628;31;34619;-72
2021/12/31 01:21:55;;;;;;;38.55;20.58;;;;;;;4.69;100.00;100987.19;5590740;31;34124;-71
2021/12/31 01:24:58;;;;;;;38.78;20.52;;;;;;;4.69;100.00;100991.59;5590609;31;34414;-72
2021/12/31 01:28:01;;;;;;;38.90;20.65;;;;;;;4.74;100.00;100976.31;5590840;31;34320;-72
2021/12/31 01:31:05;;;;;;;38.80;21.23;;;;;;;4.74;100.00;100986.81;5590429;31;34006;-72
2021/12/31 01:34:07;;;;;;;38.17;21.58;;;;;;;4.70;100.00;100978.31;5590683;31;34013;-72
2021/12/31 01:37:11;;;;;;;41.97;21.83;;;;;;;4.73;100.00;100972.84;5590397;31;34031;-72
2021/12/31 01:40:14;;;;;;;40.38;20.35;;;;;;;4.76;100.00;100977.00;5590406;31;34099;-72
2021/12/31 01:43:18;;;;;;;40.08;20.88;;;;;;;4.77;100.00;100981.31;5590316;31;34539;-72
2021/12/31 01:46:23;;;;;;;40.05;21.40;;;;;;;4.75;100.00;100977.97;5590319;31;34546;-72
2021/12/31 01:49:36;;;;;;;37.53;19.67;;;;;;;4.80;100.00;100973.19;5589530;31;34111;-72
2021/12/31 01:52:42;;;;;;;38.28;20.40;;;;;;;4.71;100.00;100966.84;5590310;31;34107;-72
2021/12/31 01:55:45;;;;;;;40.28;20.95;;;;;;;4.72;100.00;100963.28;5589218;31;34058;-72
2021/12/31 01:58:53;;;;;;;40.03;20.92;;;;;;;4.70;100.00;100970.44;5590573;31;34002;-72
2021/12/31 02:01:57;;;;;;;39.70;20.80;;;;;;;4.69;100.00;100970.56;5590222;31;34611;-72
2021/12/31 02:05:03;;;;;;;44.72;21.52;;;;;;;4.68;100.00;100977.59;5590237;31;34574;-72
2021/12/31 02:08:06;;;;;;;41.05;20.40;;;;;;;4.65;100.00;100982.22;5590256;31;33891;-72
2021/12/31 02:11:09;;;;;;;39.53;21.58;;;;;;;4.70;100.00;100978.31;5590452;31;34691;-72
2021/12/31 02:14:11;;;;;;;46.17;22.17;;;;;;;4.64;100.00;100981.44;5590403;31;34020;-72
2021/12/31 02:17:14;;;;;;;45.10;21.65;;;;;;;4.58;100.00;100978.41;5589304;31;34535;-72
2021/12/31 02:20:19;;;;;;;39.92;19.73;;;;;;;4.67;100.00;100975.09;5590044;31;34193;-72
2021/12/31 02:23:26;;;;;;;38.63;20.23;;;;;;;4.62;100.00;100972.81;5590166;31;33897;-72
2021/12/31 02:26:28;;;;;;;38.00;20.55;;;;;;;4.60;100.00;100966.81;5589869;31;34005;-72
2021/12/31 02:29:32;;;;;;;42.22;20.45;;;;;;;4.65;100.00;100955.94;5589115;31;33994;-72
2021/12/31 02:32:35;;;;;;;44.53;21.60;;;;;;;4.58;100.00;100954.75;5589823;31;34219;-72
2021/12/31 02:35:39;;;;;;;47.95;22.02;;;;;;;4.48;100.00;100951.16;5590350;31;34420;-72
2021/12/31 02:38:43;;;;;;;43.00;21.65;;;;;;;4.53;100.00;100956.91;5589926;31;33999;-72
2021/12/31 02:41:46;;;;;;;45.45;21.12;;;;;;;4.49;100.00;100951.03;5589029;31;34551;-72
2021/12/31 02:44:50;;;;;;;46.63;20.77;;;;;;;4.44;100.00;100936.56;5590310;31;34422;-72
2021/12/31 02:47:53;;;;;;;41.95;21.62;;;;;;;4.33;100.00;100945.25;5589804;31;34593;-72
2021/12/31 02:50:59;;;;;;;42.92;21.27;;;;;;;4.29;100.00;100954.31;5589596;31;34069;-72
2021/12/31 02:54:06;;;;;;;44.20;21.33;;;;;;;4.20;100.00;100955.84;5590176;31;33800;-72
2021/12/31 02:57:11;;;;;;;39.60;20.60;;;;;;;4.30;100.00;100946.31;5589817;31;35574;-72
2021/12/31 03:00:14;;;;;;;44.40;21.48;;;;;;;4.24;100.00;100951.19;5590057;31;33991;-72
2021/12/31 03:03:19;;;;;;;41.55;20.62;;;;;;;4.23;100.00;100939.84;5589704;31;33671;-72
2021/12/31 03:06:23;;;;;;;43.30;21.87;;;;;;;4.19;100.00;100940.19;5589529;31;34595;-72
2021/12/31 03:09:31;;;;;;;43.13;21.35;;;;;;;4.18;100.00;100946.38;5589768;31;34169;-72
2021/12/31 03:12:33;;;;;;;49.03;22.37;;;;;;;4.09;100.00;100944.44;5589599;31;34619;-72
2021/12/31 03:15:38;;;;;;;41.17;21.77;;;;;;;4.01;100.00;100938.91;5589570;31;34418;-72
2021/12/31 03:18:41;;;;;;;44.83;21.40;;;;;;;3.93;100.00;100947.31;5589873;31;34644;-72
2021/12/31 03:21:44;;;;;;;47.88;22.98;;;;;;;3.88;100.00;100939.78;5589442;31;34157;-72
2021/12/31 03:24:47;;;;;;;48.67;23.12;;;;;;;3.91;100.00;100951.87;5589503;31;33882;-72
2021/12/31 03:27:49;;;;;;;43.33;20.95;;;;;;;3.88;100.00;100952.06;5589408;31;34036;-72
2021/12/31 03:30:52;;;;;;;47.10;20.48;;;;;;;3.83;100.00;100946.31;5589433;31;33958;-72
2021/12/31 03:33:55;;;;;;;51.13;22.77;;;;;;;3.92;100.00;100943.88;5589333;31;34219;-72
2021/12/31 03:36:58;;;;;;;49.83;21.95;;;;;;;3.85;100.00;100945.28;5589429;31;33839;-72
2021/12/31 03:40:01;;;;;;;48.17;24.00;;;;;;;3.81;100.00;100935.09;5589422;31;34603;-72
2021/12/31 03:43:04;;;;;;;52.30;23.60;;;;;;;3.77;100.00;100936.28;5589294;31;34544;-72
2021/12/31 03:46:07;;;;;;;56.37;23.58;;;;;;;3.73;100.00;100945.28;5589247;31;34603;-72
2021/12/31 03:49:10;;;;;;;54.70;24.45;;;;;;;3.70;100.00;100941.13;5589262;31;33931;-72
2021/12/31 03:52:14;;;;;;;66.03;25.58;;;;;;;3.66;100.00;100942.31;5588960;31;34976;-71
2021/12/31 03:55:17;;;;;;;57.38;23.80;;;;;;;3.66;100.00;100946.72;5588811;31;33961;-72
2021/12/31 03:58:20;;;;;;;65.57;25.15;;;;;;;3.62;100.00;100937.38;5589481;31;34540;-72
2021/12/31 04:01:22;;;;;;;55.88;23.67;;;;;;;3.59;100.00;100933.19;5589103;31;35258;-72
2021/12/31 04:04:25;;;;;;;55.30;24.50;;;;;;;3.58;100.00;100928.91;5588929;31;34377;-72
2021/12/31 04:07:29;;;;;;;58.80;23.67;;;;;;;3.55;100.00;100931.72;5588991;31;33971;-72
2021/12/31 04:10:32;;;;;;;59.38;23.95;;;;;;;3.53;100.00;100930.16;5589199;31;34163;-72
2021/12/31 04:13:35;;;;;;;62.92;23.65;;;;;;;3.64;100.00;100935.47;5588859;31;34307;-72
2021/12/31 04:16:38;;;;;;;57.58;24.65;;;;;;;3.64;100.00;100943.34;5588880;31;33844;-73
2021/12/31 04:19:42;;;;;;;65.97;24.77;;;;;;;3.48;100.00;100931.34;5590086;31;35428;-72
2021/12/31 04:22:57;;;;;;;60.38;25.35;;;;;;;3.39;100.00;100920.63;5590938;31;34239;-72
2021/12/31 04:26:00;;;;;;;60.53;25.70;;;;;;;3.39;100.00;100926.72;5591055;31;33951;-72
2021/12/31 04:29:04;;;;;;;57.83;25.80;;;;;;;3.32;100.00;100922.03;5591031;31;34478;-72
2021/12/31 04:32:07;;;;;;;69.57;24.92;;;;;;;3.28;100.00;100921.41;5591012;31;34025;-72
2021/12/31 04:35:11;;;;;;;59.42;24.80;;;;;;;3.22;100.00;100923.62;5590807;31;34223;-72
2021/12/31 04:38:14;;;;;;;51.10;22.50;;;;;;;3.14;100.00;100915.47;5590656;31;34564;-72
2021/12/31 04:41:17;;;;;;;57.05;24.17;;;;;;;3.07;100.00;100922.91;5591264;31;34056;-72
2021/12/31 04:44:20;;;;;;;54.50;22.37;;;;;;;3.00;100.00;100912.00;5590119;31;33900;-72
2021/12/31 04:47:24;;;;;;;54.08;22.80;;;;;;;3.02;100.00;100909.28;5590853;31;34595;-72
2021/12/31 04:50:26;;;;;;;54.20;22.60;;;;;;;3.03;100.00;100916.22;5590047;31;34032;-72
2021/12/31 04:53:29;;;;;;;54.33;23.20;;;;;;;2.97;100.00;100927.94;5590078;31;34082;-72
2021/12/31 04:56:32;;;;;;;52.50;23.08;;;;;;;2.91;100.00;100935.37;5590214;31;34630;-72
2021/12/31 04:59:35;;;;;;;52.42;23.30;;;;;;;2.96;100.00;100930.66;5590717;31;35175;-72
2021/12/31 05:02:37;;;;;;;56.05;23.38;;;;;;;2.96;100.00;100935.91;5590888;31;34376;-72
2021/12/31 05:05:40;;;;;;;46.58;22.30;;;;;;;2.99;100.00;100938.34;5590728;31;34661;-72
2021/12/31 05:08:43;;;;;;;52.83;24.52;;;;;;;3.14;100.00;100933.81;5590578;31;34612;-72
2021/12/31 05:11:46;;;;;;;53.28;23.52;;;;;;;3.21;100.00;100937.66;5590881;31;34572;-72
2021/12/31 05:14:48;;;;;;;60.12;24.27;;;;;;;3.22;100.00;100936.72;5590600;31;33924;-72
2021/12/31 05:17:51;;;;;;;54.72;24.27;;;;;;;3.30;100.00;100932.63;5590905;31;34696;-72
2021/12/31 05:20:54;;;;;;;61.53;25.52;;;;;;;3.43;100.00;100938.69;5590603;31;34549;-72
2021/12/31 05:23:57;;;;;;;60.70;25.75;;;;;;;3.46;100.00;100925.34;5590604;31;34163;-72
2021/12/31 05:27:00;;;;;;;58.40;25.25;;;;;;;3.48;100.00;100928.72;5590774;31;33957;-72
2021/12/31 05:30:04;;;;;;;46.15;21.48;;;;;;;3.43;100.00;100930.00;5590568;31;34028;-72
2021/12/31 05:33:07;;;;;;;59.40;25.05;;;;;;;4.03;100.00;100926.50;5590298;31;34229;-72
2021/12/31 05:36:17;;;;;;;49.70;23.30;;;;;;;3.89;100.00;100938.84;5589757;31;34485;-72
2021/12/31 05:39:20;;;;;;;61.22;25.52;;;;;;;3.75;100.00;100938.16;5590364;31;34641;-72
2021/12/31 05:42:24;;;;;;;51.42;22.35;;;;;;;3.69;100.00;100934.19;5590420;31;34171;-72
2021/12/31 05:45:26;;;;;;;48.22;21.17;;;;;;;3.65;100.00;100934.53;5590748;31;34580;-72
2021/12/31 05:48:39;;;;;;;46.58;20.80;;;;;;;3.65;100.00;100938.00;5590332;31;34438;-73
2021/12/31 05:51:42;;;;;;;37.95;19.05;;;;;;;4.30;100.00;100945.47;5589535;31;33807;-73
2021/12/31 05:54:45;;;;;;;36.40;16.33;;;;;;;4.19;100.00;100941.03;5590219;31;34471;-73
2021/12/31 05:57:48;;;;;;;37.20;17.87;;;;;;;5.35;100.00;100946.13;5590303;31;34575;-73
2021/12/31 06:00:51;;;;;;;35.45;16.95;;;;;;;6.14;100.00;100942.41;5590181;31;34585;-73
2021/12/31 06:03:54;;;;;;;35.97;16.23;;;;;;;6.23;100.00;100940.81;5590206;31;34676;-73
2021/12/31 06:06:57;;;;;;;30.83;16.52;;;;;;;6.19;100.00;100940.22;5590246;31;33958;-73
2021/12/31 06:10:00;;;;;;;31.83;16.77;;;;;;;6.27;100.00;100944.84;5590110;31;34545;-72
2021/12/31 06:13:03;;;;;;;29.90;15.40;;;;;;;7.03;100.00;100933.97;5589670;31;34586;-73
2021/12/31 06:16:11;;;;;;;26.10;14.98;;;;;;;7.19;100.00;100936.97;5590261;31;34068;-73
2021/12/31 06:19:15;;;;;;;26.12;15.13;;;;;;;7.27;100.00;100944.22;5576381;31;34529;-73
2021/12/31 06:22:18;;;;;;;22.75;13.80;;;;;;;7.31;100.00;100946.44;5589984;31;34709;-74
2021/12/31 06:25:21;;;;;;;21.70;12.80;;;;;;;7.27;100.00;100950.31;5589784;31;34175;-74
2021/12/31 06:28:24;;;;;;;20.12;12.45;;;;;;;7.29;100.00;100948.41;5589850;31;34562;-74
2021/12/31 06:31:27;;;;;;;20.20;12.60;;;;;;;7.48;100.00;100949.44;5589144;31;34600;-75
2021/12/31 06:34:30;;;;;;;24.42;12.57;;;;;;;7.37;100.00;100953.84;5589909;31;34324;-74
2021/12/31 06:37:37;;;;;;;20.60;12.40;;;;;;;7.36;100.00;100964.53;5589451;31;34678;-74
2021/12/31 06:40:40;;;;;;;17.80;11.63;;;;;;;7.26;100.00;100968.94;5588124;31;33976;-74
2021/12/31 06:43:44;;;;;;;19.52;11.68;;;;;;;7.21;100.00;100968.50;5589803;31;34081;-73
2021/12/31 06:46:47;;;;;;;17.73;11.75;;;;;;;7.43;100.00;100966.50;5589102;31;34631;-74
2021/12/31 06:49:50;;;;;;;17.33;11.25;;;;;;;7.64;100.00;100969.09;5589766;31;33955;-74
2021/12/31 06:52:56;;;;;;;18.77;11.95;;;;;;;7.56;100.00;100976.81;5576387;31;34095;-74
2021/12/31 06:56:10;;;;;;;17.75;10.82;;;;;;;7.42;100.00;100979.84;5589676;31;34859;-73
2021/12/31 06:59:14;;;;;;;17.17;11.18;;;;;;;7.58;100.00;100979.34;5589735;31;34599;-74
2021/12/31 07:02:18;;;;;;;19.73;11.23;;;;;;;7.61;100.00;100984.34;5588970;31;34675;-74
2021/12/31 07:05:25;;;;;;;17.83;9.75;;;;;;;7.79;100.00;100980.91;5589712;31;34289;-74
2021/12/31 07:09:01;;;;;;;15.75;9.65;;;;;;;7.92;100.00;100983.34;5589676;31;34613;-74
2021/12/31 07:12:15;;;;;;;15.70;10.07;;;;;;;8.00;100.00;100987.91;5589536;31;34633;-73
2021/12/31 07:15:18;;;;;;;15.10;9.55;;;;;;;7.96;100.00;101002.38;5589494;31;34036;-74
2021/12/31 07:18:39;;;;;;;13.13;9.15;;;;;;;8.10;100.00;101007.28;5589531;31;34116;-73
2021/12/31 07:21:42;;;;;;;15.45;9.10;;;;;;;8.23;100.00;101010.50;5575972;31;34733;-73
2021/12/31 07:24:45;;;;;;;13.00;8.35;;;;;;;8.22;100.00;101004.41;5589467;31;34117;-73
2021/12/31 07:27:54;;;;;;;11.77;8.00;;;;;;;8.27;100.00;101004.81;5589357;31;34611;-73
2021/12/31 07:31:00;;;;;;;13.70;8.25;;;;;;;8.39;100.00;101007.34;5589354;31;34014;-73
2021/12/31 07:34:03;;;;;;;13.43;8.57;;;;;;;8.41;100.00;101016.81;5589027;31;33922;-73
2021/12/31 07:37:07;;;;;;;14.13;8.32;;;;;;;8.49;100.00;101016.13;5589258;31;34003;-72
2021/12/31 07:40:12;;;;;;;17.80;7.93;;;;;;;8.50;100.00;101023.91;5575724;31;34092;-74
2021/12/31 07:43:15;;;;;;;12.93;8.40;;;;;;;8.47;100.00;101015.44;5588542;31;34348;-75
2021/12/31 07:46:18;;;;;;;13.70;8.90;;;;;;;8.53;100.00;101026.28;5588729;31;34455;-73
2021/12/31 07:49:21;;;;;;;14.13;8.85;;;;;;;8.56;100.00;101017.25;5589560;31;33893;-73
2021/12/31 07:52:24;;;;;;;13.18;8.75;;;;;;;8.59;100.00;101030.19;5588343;31;34545;-73
2021/12/31 07:55:27;;;;;;;11.90;8.40;;;;;;;8.51;100.00;101033.53;5589260;31;33943;-74
2021/12/31 07:58:30;;;;;;;13.68;8.13;;;;;;;8.62;100.00;101038.66;5588809;31;34507;-72
2021/12/31 08:01:35;;;;;;;14.63;8.77;;;;;;;8.74;100.00;101039.38;5589128;31;34239;-73
2021/12/31 08:04:38;;;;;;;10.73;8.02;;;;;;;8.68;100.00;101035.47;5588838;31;34596;-73
2021/12/31 08:07:40;;;;;;;13.68;8.30;;;;;;;8.64;100.00;101028.78;5588340;31;34738;-73
2021/12/31 08:10:44;;;;;;;10.90;7.93;;;;;;;8.77;100.00;101044.38;5588638;31;34715;-73
2021/12/31 08:13:57;;;;;;;11.12;7.82;;;;;;;8.83;100.00;101032.41;5588096;31;34569;-71
2021/12/31 08:17:00;;;;;;;10.25;6.82;;;;;;;8.87;100.00;101039.91;5588850;31;33910;-73
2021/12/31 08:20:04;;;;;;;14.43;7.97;;;;;;;8.95;100.00;101041.88;5588692;31;35441;-72
2021/12/31 08:23:10;;;;;;;13.02;8.07;;;;;;;8.91;100.00;101045.75;5588629;31;34584;-73
2021/12/31 08:26:13;;;;;;;15.48;8.13;;;;;;;8.97;100.00;101047.84;5587513;31;34401;-72
2021/12/31 08:29:18;;;;;;;13.13;8.05;;;;;;;9.08;100.00;101045.03;5588396;31;34117;-73
2021/12/31 08:32:21;;;;;;;10.70;7.40;;;;;;;9.15;100.00;101046.97;5588419;31;33943;-73
2021/12/31 08:35:27;;;;;;;10.70;7.32;;;;;;;9.23;100.00;101043.63;5588342;31;34592;-73
2021/12/31 08:38:29;;;;;;;11.45;6.87;;;;;;;9.22;100.00;101039.31;5587514;31;34504;-73
2021/12/31 08:41:33;;;;;;;10.18;6.35;;;;;;;9.29;100.00;101034.28;5588627;31;34333;-72
2021/12/31 08:44:50;;;;;;;9.40;6.40;;;;;;;9.46;100.00;101042.31;5588601;31;33871;-72
2021/12/31 08:47:53;;;;;;;10.27;6.70;;;;;;;9.55;100.00;101035.28;5588141;31;34210;-72
2021/12/31 08:50:56;;;;;;;9.95;6.50;;;;;;;9.70;100.00;101039.16;5588448;31;34852;-73
2021/12/31 08:53:58;;;;;;;8.27;5.60;;;;;;;9.78;100.00;101046.38;5588200;31;34693;-72
2021/12/31 08:57:01;;;;;;;8.50;5.80;;;;;;;9.87;100.00;101048.16;5587913;31;34577;-73
2021/12/31 09:00:07;;;;;;;8.60;5.35;;;;;;;10.00;100.00;101053.94;5587784;31;34205;-74
2021/12/31 09:03:10;;;;;;;9.75;4.97;;;;;;;9.92;100.00;101045.88;5586920;31;33931;-73
2021/12/31 09:06:17;;;;;;;7.00;4.80;;;;;;;10.19;100.00;101055.66;5590623;31;35043;-73
2021/12/31 09:09:20;;;;;;;6.25;3.92;;;;;;;10.22;100.00;101053.53;5590745;31;34052;-73
2021/12/31 09:12:24;;;;;;;6.82;4.28;;;;;;;10.42;100.00;101054.25;5589804;31;34055;-73
2021/12/31 09:15:35;;;;;;;5.82;3.87;;;;;;;10.44;100.00;101057.59;5590974;31;34686;-73
2021/12/31 09:18:54;;;;;;;8.50;5.00;;;;;;;10.58;100.00;101054.41;5590277;31;32852;-73
2021/12/31 09:21:57;;;;;;;6.07;4.20;;;;;;;10.59;100.00;101052.59;5589853;31;34184;-72
2021/12/31 09:25:00;;;;;;;6.05;3.90;;;;;;;10.61;100.00;101046.16;5590065;31;33994;-73
2021/12/31 09:28:03;;;;;;;6.55;4.00;;;;;;;10.60;100.00;101054.28;5590315;31;34646;-73
2021/12/31 09:31:08;;;;;;;6.93;3.60;;;;;;;10.62;100.00;101052.28;5590102;31;34221;-73
2021/12/31 09:34:12;;;;;;;4.75;3.00;;;;;;;10.76;100.00;101059.72;5589888;31;33948;-72
2021/12/31 09:37:15;;;;;;;6.20;3.60;;;;;;;10.94;100.00;101055.22;5590084;31;34595;-74
2021/12/31 09:40:19;;;;;;;5.55;3.25;;;;;;;11.08;100.00;101048.56;5590214;31;34609;-73
2021/12/31 09:43:22;;;;;;;4.65;3.25;;;;;;;11.02;100.00;101046.50;5590266;31;33919;-73
2021/12/31 09:46:24;;;;;;;6.22;3.60;;;;;;;10.98;100.00;101040.69;5590053;31;34175;-73
2021/12/31 09:49:27;;;;;;;7.60;4.25;;;;;;;11.00;100.00;101035.19;5589843;31;33636;-72
2021/12/31 09:52:32;;;;;;;5.22;3.72;;;;;;;11.05;100.00;101030.25;5589853;31;34619;-73
2021/12/31 09:55:42;;;;;;;5.20;3.60;;;;;;;11.19;100.00;101029.69;5589481;31;34026;-73
2021/12/31 09:58:45;;;;;;;7.00;3.55;;;;;;;11.22;100.00;101034.72;5589806;31;34280;-72
2021/12/31 10:01:50;;;;;;;7.30;3.83;;;;;;;11.25;100.00;101023.75;5589558;31;34611;-75
2021/12/31 10:04:55;;;;;;;5.97;3.30;;;;;;;11.23;100.00;101023.91;5589866;31;34752;-72
2021/12/31 10:07:58;;;;;;;4.90;3.20;;;;;;;11.17;100.00;101021.91;5589913;31;33926;-73
2021/12/31 10:11:17;;;;;;;6.07;3.47;;;;;;;11.26;100.00;101022.78;5589993;31;34348;-72
2021/12/31 10:14:35;;;;;;;4.43;3.17;;;;;;;11.30;100.00;101013.50;5589650;31;34619;-72
2021/12/31 10:17:38;;;;;;;4.50;3.25;;;;;;;11.46;100.00;101018.09;5589034;31;34575;-72
2021/12/31 10:20:50;;;;;;;4.28;3.00;;;;;;;11.48;100.00;101014.25;5590087;31;34158;-72
2021/12/31 10:23:52;;;;;;;5.03;2.70;;;;;;;11.54;100.00;101031.41;5589298;31;34366;-72
2021/12/31 10:26:58;;;;;;;4.22;2.75;;;;;;;11.59;100.00;101015.81;5584943;31;141754;-72
2021/12/31 10:30:06;;;;;;;5.60;2.40;;;;;;;11.67;100.00;101011.38;5589840;31;34006;-73
2021/12/31 10:33:10;;;;;;;5.00;2.60;;;;;;;11.76;100.00;101001.66;5589253;31;34163;-72
2021/12/31 10:36:33;;;;;;;4.12;2.60;;;;;;;11.93;100.00;101002.53;5589163;31;34481;-72
2021/12/31 10:39:37;;;;;;;4.45;2.70;;;;;;;11.89;100.00;101001.19;5588833;31;34604;-73
2021/12/31 10:42:41;;;;;;;4.00;2.45;;;;;;;11.97;100.00;100998.56;5589282;31;34694;-72
2021/12/31 10:46:03;;;;;;;3.25;2.40;;;;;;;12.00;100.00;100999.09;5589199;31;34325;-72
2021/12/31 10:49:10;;;;;;;4.97;2.45;;;;;;;12.13;99.20;101010.06;5589886;31;34267;-73
2021/12/31 10:52:22;;;;;;;3.35;2.20;;;;;;;12.14;99.38;101006.44;5589830;31;33867;-72
2021/12/31 10:55:29;;;;;;;4.00;2.37;;;;;;;12.31;98.30;101006.44;5589510;31;33928;-73
2021/12/31 10:58:32;;;;;;;3.35;2.08;;;;;;;12.66;95.39;101000.00;5589789;31;34132;-72
2021/12/31 11:01:36;;;;;;;3.22;2.30;;;;;;;12.73;95.03;101012.47;5589572;31;34267;-72
2021/12/31 11:04:39;;;;;;;3.72;1.87;;;;;;;12.75;94.14;101009.66;5589264;31;34180;-71
2021/12/31 11:07:43;;;;;;;5.40;2.10;;;;;;;12.80;92.74;101002.00;5589484;31;34042;-71
2021/12/31 11:11:05;;;;;;;3.83;2.00;;;;;;;13.05;91.64;100993.00;5589651;31;34269;-71
2021/12/31 11:14:10;;;;;;;3.53;1.85;;;;;;;13.24;90.04;100991.81;5588599;31;34023;-70
2021/12/31 11:17:12;;;;;;;2.75;1.70;;;;;;;12.94;90.84;100974.69;5588372;31;35221;-71
2021/12/31 11:20:20;;;;;;;2.42;1.40;;;;;;;12.79;91.36;100987.84;5589375;31;34423;-71
2021/12/31 11:23:28;;;;;;;2.03;1.40;;;;;;;12.88;90.14;100984.19;5589336;31;34546;-71
2021/12/31 11:26:30;;;;;;;1.87;1.35;;;;;;;12.93;89.41;100975.69;5588970;31;34036;-71
2021/12/31 11:29:38;;;;;;;5.15;1.27;;;;;;;12.81;90.39;100963.72;5589390;31;34239;-71
2021/12/31 11:32:59;;;;;;;3.03;1.40;;;;;;;12.83;90.75;100967.88;5588044;31;33884;-71
2021/12/31 11:36:06;;;;;;;1.95;1.30;;;;;;;12.77;90.87;100954.41;5589004;31;34038;-72
2021/12/31 11:39:14;;;;;;;2.40;1.37;;;;;;;12.74;90.91;100952.91;5588877;31;33965;-71
2021/12/31 11:42:24;;;;;;;3.15;1.45;;;;;;;12.77;91.00;100957.06;5588624;31;33927;-72
2021/12/31 11:45:27;;;;;;;3.47;1.92;;;;;;;12.79;91.52;100947.91;5588159;31;34411;-71
2021/12/31 11:48:43;;;;;;;3.42;1.90;;;;;;;12.80;91.05;100959.41;5589242;31;34410;-72
2021/12/31 11:52:00;;;;;;;3.62;2.30;;;;;;;12.69;91.65;100957.91;5588888;31;34620;-71
2021/12/31 11:55:18;;;;;;;2.60;1.73;;;;;;;12.71;92.22;100966.56;5588489;31;34613;-72
2021/12/31 11:58:41;;;;;;;3.45;1.98;;;;;;;12.64;91.57;100961.06;5588199;31;34637;-72
2021/12/31 12:01:50;;;;;;;4.78;2.20;;;;;;;12.69;91.75;100963.22;5588808;31;34125;-72
2021/12/31 12:05:08;;;;;;;3.97;2.07;;;;;;;12.70;90.58;100961.41;5588771;31;33924;-72
2021/12/31 12:08:25;;;;;;;4.10;2.28;;;;;;;12.80;89.52;100962.87;5587939;31;35435;-72
2021/12/31 12:12:03;;;;;;;4.70;2.30;;;;;;;12.87;89.14;100957.72;5587962;31;34139;-72
2021/12/31 12:15:15;;;;;;;3.87;2.15;;;;;;;12.98;88.72;100942.22;5586427;31;33866;-71
2021/12/31 12:18:51;;;;;;;5.15;2.42;;;;;;;12.96;88.83;100946.06;5587526;31;33949;-71
2021/12/31 12:21:53;;;;;;;4.32;2.22;;;;;;;13.07;88.34;100959.00;5587681;31;34739;-71
2021/12/31 12:25:02;;;;;;;4.22;2.20;;;;;;;13.37;86.81;100954.81;5588664;31;34603;-71
2021/12/31 12:28:10;;;;;;;3.83;2.10;;;;;;;13.29;87.45;100962.84;5588020;31;34101;-72
2021/12/31 12:31:16;;;;;;;3.87;2.22;;;;;;;13.42;86.98;100952.44;5588328;31;34869;-71
2021/12/31 12:34:28;;;;;;;2.97;2.10;;;;;;;13.41;87.40;100956.13;5587642;31;35270;-71
2021/12/31 12:37:31;;;;;;;5.32;2.30;;;;;;;13.49;86.46;100948.94;5588204;31;34735;-71
2021/12/31 12:40:37;;;;;;;4.28;2.42;;;;;;;13.58;86.01;100944.41;5590509;31;34277;-71
2021/12/31 12:43:47;;;;;;;4.25;2.00;;;;;;;13.67;85.31;100948.69;5591043;31;34001;-71
2021/12/31 12:47:00;;;;;;;2.75;2.00;;;;;;;13.35;87.97;100946.16;5590869;31;35194;-71
2021/12/31 12:50:09;;;;;;;4.80;2.20;;;;;;;13.36;87.09;100947.84;5591011;31;34060;-70
2021/12/31 12:53:19;;;;;;;3.10;2.25;;;;;;;13.06;89.54;100950.22;5589796;31;34017;-71
2021/12/31 12:56:23;;;;;;;3.58;2.37;;;;;;;13.11;89.44;100949.72;5590718;31;34646;-71
2021/12/31 12:59:31;;;;;;;7.45;2.15;;;;;;;13.12;89.52;100940.72;5590129;31;34609;-71
2021/12/31 13:02:44;;;;;;;6.37;2.53;;;;;;;13.08;89.62;100932.22;5590405;31;33980;-71
2021/12/31 13:05:47;;;;;;;6.65;2.58;;;;;;;13.03;90.04;100928.37;5590411;31;33900;-71
2021/12/31 13:09:18;;;;;;;3.58;2.50;;;;;;;12.90;91.20;100933.41;5590759;31;33924;-71
2021/12/31 13:12:25;;;;;;;3.83;2.40;;;;;;;12.86;91.45;100927.59;5590194;31;34167;-71
2021/12/31 13:15:30;;;;;;;5.07;2.55;;;;;;;12.76;92.71;100926.13;5590169;31;35014;-71
2021/12/31 13:18:36;;;;;;;4.53;2.60;;;;;;;12.73;93.03;100915.81;5590491;31;34744;-72
2021/12/31 13:21:39;;;;;;;3.55;2.22;;;;;;;12.66;93.73;100917.47;5590021;31;32537;-71
2021/12/31 13:24:42;;;;;;;3.30;1.87;;;;;;;12.62;93.06;100914.34;5590884;31;34490;-71
2021/12/31 13:27:44;;;;;;;3.53;2.12;;;;;;;12.65;91.94;100906.00;5590247;31;35227;-71
2021/12/31 13:31:09;;;;;;;5.97;2.10;;;;;;;12.72;92.43;100906.16;5590837;31;34290;-71
2021/12/31 13:34:15;;;;;;;3.72;1.90;;;;;;;12.81;92.22;100899.81;5590062;31;33954;-71
2021/12/31 13:37:37;;;;;;;6.05;2.28;;;;;;;12.88;89.62;100890.13;5590503;31;34346;-71
2021/12/31 13:40:49;;;;;;;4.22;2.28;;;;;;;13.01;90.50;100899.28;5590155;31;34672;-71
2021/12/31 13:43:57;;;;;;;4.05;2.60;;;;;;;12.82;92.24;100905.00;5589820;31;34118;-71
2021/12/31 13:47:12;;;;;;;4.85;2.60;;;;;;;12.62;94.29;100893.88;5590354;31;34000;-71
2021/12/31 13:50:18;;;;;;;3.67;2.60;;;;;;;12.61;93.81;100897.53;5576542;31;33640;-71
2021/12/31 13:53:22;;;;;;;4.60;2.30;;;;;;;12.46;94.79;100895.69;5589417;31;34282;-71
2021/12/31 13:56:54;;;;;;;8.77;2.87;;;;;;;12.47;95.11;100895.53;5589506;31;34655;-71
2021/12/31 14:00:10;;;;;;;4.05;2.60;;;;;;;12.62;94.19;100893.03;5577110;31;33983;-71
2021/12/31 14:03:17;;;;;;;3.35;2.28;;;;;;;12.58;94.26;100894.37;5590124;31;34019;-71
2021/12/31 14:06:24;;;;;;;5.07;2.60;;;;;;;12.52;94.41;100887.87;5590045;31;33909;-71
2021/12/31 14:09:27;;;;;;;3.12;2.17;;;;;;;12.45;95.13;100881.56;5590116;31;34214;-71
2021/12/31 14:12:30;;;;;;;4.45;2.72;;;;;;;12.51;94.48;100880.91;5590489;31;34060;-71
2021/12/31 14:15:36;;;;;;;4.20;2.40;;;;;;;12.37;95.20;100880.75;5589147;31;34106;-71